createdAt,value
2023-03-14T00:00:19.013Z,70.35
2023-03-14T00:03:05.872Z,69.11
2023-03-14T00:05:48.146Z,68.83
2023-03-14T00:08:36.904Z,68.29
2023-03-14T00:11:18.786Z,68.46
2023-03-14T00:14:14.151Z,67.77
2023-03-14T00:17:00.940Z,67.57
2023-03-14T00:19:50.600Z,66.99
2023-03-14T00:22:33.951Z,66.86
2023-03-14T00:25:18.051Z,66.24
2023-03-14T00:27:56.963Z,66.51
2023-03-14T00:30:41.432Z,66.19
2023-03-14T00:33:23.647Z,66.25
2023-03-14T00:36:21.378Z,66.29
2023-03-14T00:39:06.547Z,66.13
2023-03-14T00:41:49.946Z,66.05
2023-03-14T00:44:37.049Z,66.02
2023-03-14T00:47:33.190Z,65.84
2023-03-14T00:50:17.026Z,65.89
2023-03-14T00:53:01.693Z,65.85
2023-03-14T00:55:43.440Z,66.22
2023-03-14T00:58:22.476Z,65.92
2023-03-14T01:01:06.777Z,65.47
2023-03-14T01:03:48.597Z,65.57
2023-03-14T01:06:36.697Z,65.47
2023-03-14T01:09:17.479Z,65.77
2023-03-14T01:12:00.690Z,66.13
2023-03-14T01:14:43.918Z,66.87
2023-03-14T01:17:35.297Z,66.17
2023-03-14T01:20:16.015Z,66.51
2023-03-14T01:23:02.713Z,66.89
2023-03-14T01:25:49.186Z,67.72
2023-03-14T01:28:25.988Z,67.51
2023-03-14T01:31:12.668Z,67.00
2023-03-14T01:33:59.526Z,66.61
2023-03-14T01:36:38.157Z,66.89
2023-03-14T01:39:23.040Z,66.55
2023-03-14T01:42:08.049Z,66.72
2023-03-14T01:45:29.483Z,66.99
2023-03-14T01:48:13.305Z,66.55
2023-03-14T01:51:01.536Z,67.31
2023-03-14T01:53:44.887Z,67.12
2023-03-14T01:56:29.723Z,67.54
2023-03-14T01:59:17.039Z,67.20
2023-03-14T02:02:00.773Z,67.57
2023-03-14T02:04:47.954Z,68.35
2023-03-14T02:07:52.319Z,67.96
2023-03-14T02:10:53.589Z,67.69
2023-03-14T02:14:08.961Z,68.15
2023-03-14T02:17:13.603Z,68.28
2023-03-14T02:20:24.534Z,68.20
2023-03-14T02:23:09.568Z,67.85
2023-03-14T02:25:54.939Z,67.61
2023-03-14T02:28:38.670Z,67.95
2023-03-14T02:31:27.779Z,67.93
2023-03-14T02:34:10.553Z,67.04
2023-03-14T02:36:53.992Z,66.84
2023-03-14T02:39:49.971Z,67.83
2023-03-14T02:42:27.537Z,67.18
2023-03-14T02:45:18.083Z,68.27
2023-03-14T02:48:03.913Z,69.31
2023-03-14T02:50:57.033Z,69.02
2023-03-14T02:53:50.755Z,70.06
2023-03-14T02:56:38.980Z,71.41
2023-03-14T02:59:25.851Z,72.77
2023-03-14T03:02:21.974Z,75.39
2023-03-14T03:05:06.774Z,75.25
2023-03-14T03:08:01.889Z,75.77
2023-03-14T03:10:44.954Z,76.92
2023-03-14T03:13:30.684Z,76.70
2023-03-14T03:16:31.964Z,77.85
2023-03-14T03:19:16.982Z,76.88
2023-03-14T03:22:00.302Z,75.73
2023-03-14T03:24:41.337Z,75.42
2023-03-14T03:27:26.732Z,74.11
2023-03-14T03:30:10.370Z,73.28
2023-03-14T03:32:48.839Z,72.77
2023-03-14T03:35:33.179Z,71.59
2023-03-14T03:38:12.834Z,72.25
2023-03-14T03:40:54.188Z,72.88
2023-03-14T03:43:33.433Z,72.83
2023-03-14T03:46:17.425Z,72.89
2023-03-14T03:49:03.012Z,73.57
2023-03-14T03:51:46.153Z,72.82
2023-03-14T03:54:30.467Z,72.17
2023-03-14T03:57:11.760Z,72.48
2023-03-14T04:00:06.446Z,72.83
2023-03-14T04:02:55.059Z,73.20
2023-03-14T04:05:39.625Z,73.47
2023-03-14T04:08:35.638Z,74.25
2023-03-14T04:11:19.455Z,74.83
2023-03-14T04:14:16.226Z,75.43
2023-03-14T04:17:03.889Z,74.63
2023-03-14T04:19:51.112Z,74.43
2023-03-14T04:22:32.754Z,73.58
2023-03-14T04:25:26.751Z,74.02
2023-03-14T04:28:05.114Z,73.67
2023-03-14T04:30:47.035Z,73.38
2023-03-14T04:33:38.233Z,73.26
2023-03-14T04:36:31.476Z,74.20
2023-03-14T04:39:18.485Z,73.94
2023-03-14T04:42:20.720Z,73.98
2023-03-14T04:45:04.707Z,73.74
2023-03-14T04:47:46.754Z,73.07
2023-03-14T04:50:32.228Z,72.81
2023-03-14T04:53:18.501Z,74.12
2023-03-14T04:56:10.623Z,74.48
2023-03-14T04:58:57.092Z,75.16
2023-03-14T05:01:42.306Z,75.97
2023-03-14T05:04:58.542Z,78.85
2023-03-14T05:08:02.658Z,79.65
2023-03-14T05:11:11.211Z,80.10
2023-03-14T05:14:07.170Z,80.05
2023-03-14T05:17:01.855Z,80.29
2023-03-14T05:19:42.100Z,80.64
2023-03-14T05:22:45.114Z,80.21
2023-03-14T05:25:52.026Z,81.12
2023-03-14T05:29:16.969Z,81.95
2023-03-14T05:32:06.433Z,84.11
2023-03-14T05:35:08.244Z,84.78
2023-03-14T05:38:19.975Z,82.70
2023-03-14T05:41:23.929Z,78.62
2023-03-14T05:44:28.469Z,76.89
2023-03-14T05:47:12.152Z,74.83
2023-03-14T05:50:17.229Z,73.84
2023-03-14T05:53:12.429Z,72.41
2023-03-14T05:56:13.208Z,72.40
2023-03-14T05:59:17.403Z,70.20
2023-03-14T06:02:24.368Z,67.67
2023-03-14T06:05:19.883Z,64.72
2023-03-14T06:08:13.648Z,64.68
2023-03-14T06:11:03.306Z,62.44
2023-03-14T06:13:47.950Z,60.75
2023-03-14T06:16:33.877Z,58.80
2023-03-14T06:19:22.165Z,59.22
2023-03-14T06:22:11.806Z,57.24
2023-03-14T06:24:59.706Z,56.91
2023-03-14T06:27:38.514Z,54.87
2023-03-14T06:30:19.126Z,53.52
2023-03-14T06:33:09.854Z,53.44
2023-03-14T06:36:04.002Z,53.21
2023-03-14T06:38:58.138Z,53.20
2023-03-14T06:41:42.050Z,52.29
2023-03-14T06:44:25.419Z,52.79
2023-03-14T06:47:07.041Z,52.48
2023-03-14T06:49:46.706Z,52.69
2023-03-14T06:52:38.692Z,51.68
2023-03-14T06:55:28.348Z,51.39
2023-03-14T06:58:23.488Z,51.68
2023-03-14T07:01:05.319Z,51.79
2023-03-14T07:03:55.762Z,50.51
2023-03-14T07:06:48.285Z,50.20
2023-03-14T07:09:29.629Z,50.42
2023-03-14T07:12:16.638Z,49.88
2023-03-14T07:15:19.115Z,50.02
2023-03-14T07:18:12.884Z,51.25
2023-03-14T07:20:55.305Z,50.95
2023-03-14T07:23:36.627Z,50.14
2023-03-14T07:26:28.943Z,49.91
2023-03-14T07:29:09.777Z,49.68
2023-03-14T07:31:54.077Z,49.63
2023-03-14T07:34:37.829Z,50.10
2023-03-14T07:37:26.907Z,49.96
2023-03-14T07:40:13.588Z,50.08
2023-03-14T07:43:10.091Z,49.88
2023-03-14T07:46:09.507Z,50.01
2023-03-14T07:48:47.360Z,49.23
2023-03-14T07:51:34.163Z,48.77
2023-03-14T07:54:25.877Z,48.17
2023-03-14T07:57:21.013Z,48.98
2023-03-14T08:00:10.096Z,47.46
2023-03-14T08:03:03.908Z,46.10
2023-03-14T08:05:55.725Z,45.47
2023-03-14T08:08:52.234Z,45.26
2023-03-14T08:11:36.675Z,45.53
2023-03-14T08:14:16.119Z,46.58
2023-03-14T08:16:57.299Z,46.24
2023-03-14T08:19:43.062Z,45.92
2023-03-14T08:22:24.028Z,45.21
2023-03-14T08:25:04.007Z,45.50
2023-03-14T08:27:44.635Z,45.71
2023-03-14T08:30:27.486Z,44.39
2023-03-14T08:33:11.167Z,43.66
2023-03-14T08:36:11.774Z,44.18
2023-03-14T08:38:58.691Z,43.86
2023-03-14T08:41:41.384Z,44.39
2023-03-14T08:44:24.730Z,43.67
2023-03-14T08:47:18.040Z,42.41
2023-03-14T08:50:00.462Z,43.49
2023-03-14T08:52:41.336Z,43.35
2023-03-14T08:55:35.995Z,43.36
2023-03-14T08:58:26.022Z,42.16
2023-03-14T09:01:22.455Z,43.32
2023-03-14T09:04:00.836Z,41.99
2023-03-14T09:06:45.360Z,41.91
2023-03-14T09:09:32.308Z,41.01
2023-03-14T09:12:19.474Z,40.84
2023-03-14T09:15:06.419Z,40.81
2023-03-14T09:17:50.356Z,40.53
2023-03-14T09:20:59.530Z,40.17
2023-03-14T09:23:52.958Z,42.08
2023-03-14T09:26:37.664Z,39.65
2023-03-14T09:29:21.987Z,39.18
2023-03-14T09:32:05.876Z,40.70
2023-03-14T09:34:49.041Z,40.94
2023-03-14T09:37:41.649Z,39.79
2023-03-14T09:40:36.046Z,40.08
2023-03-14T09:43:21.426Z,40.60
2023-03-14T09:46:03.153Z,39.92
2023-03-14T09:48:52.979Z,39.66
2023-03-14T09:51:33.699Z,40.41
2023-03-14T09:54:30.497Z,41.34
2023-03-14T09:57:12.636Z,40.13
2023-03-14T10:00:02.705Z,40.26
2023-03-14T10:02:47.643Z,40.25
2023-03-14T10:05:30.736Z,40.38
2023-03-14T10:08:16.455Z,40.81
2023-03-14T10:11:06.933Z,40.78
2023-03-14T10:14:19.012Z,39.85
2023-03-14T10:17:05.844Z,40.53
2023-03-14T10:20:11.184Z,39.70
2023-03-14T10:23:00.121Z,40.31
2023-03-14T10:26:02.209Z,39.26
2023-03-14T10:29:08.250Z,40.02
2023-03-14T10:32:20.496Z,39.58
2023-03-14T10:35:23.103Z,39.99
2023-03-14T10:38:06.553Z,38.59
2023-03-14T10:40:53.953Z,37.61
2023-03-14T10:43:53.532Z,38.74
2023-03-14T10:46:34.942Z,38.67
2023-03-14T10:49:56.875Z,38.57
2023-03-14T10:53:03.567Z,38.29
2023-03-14T10:55:47.747Z,39.98
2023-03-14T10:58:52.747Z,38.49
2023-03-14T11:01:53.683Z,39.18
2023-03-14T11:05:05.730Z,38.54
2023-03-14T11:07:51.664Z,38.42
2023-03-14T11:10:51.406Z,37.48
2023-03-14T11:13:40.682Z,36.82
2023-03-14T11:16:49.663Z,37.23
2023-03-14T11:19:47.760Z,36.65
2023-03-14T11:22:32.561Z,36.86
2023-03-14T11:25:36.006Z,36.76
2023-03-14T11:28:48.877Z,35.55
2023-03-14T11:31:45.240Z,36.40
2023-03-14T11:34:44.601Z,36.16
2023-03-14T11:37:47.623Z,36.86
2023-03-14T11:40:48.944Z,36.93
2023-03-14T11:43:38.935Z,36.72
2023-03-14T11:46:34.391Z,36.13
2023-03-14T11:49:48.607Z,36.48
2023-03-14T11:52:54.068Z,36.62
2023-03-14T11:55:46.309Z,36.43
2023-03-14T11:58:44.439Z,36.85
2023-03-14T12:01:30.365Z,36.59
2023-03-14T12:04:16.683Z,36.27
2023-03-14T12:07:04.650Z,36.37
2023-03-14T12:09:53.669Z,35.66
2023-03-14T12:12:37.028Z,36.25
2023-03-14T12:15:27.480Z,36.79
2023-03-14T12:18:20.860Z,36.13
2023-03-14T12:21:15.822Z,36.73
2023-03-14T12:24:10.727Z,36.77
2023-03-14T12:27:14.207Z,37.28
2023-03-14T12:30:26.032Z,37.02
2023-03-14T12:33:31.072Z,36.64
2023-03-14T12:36:21.316Z,36.97
2023-03-14T12:39:29.651Z,37.16
2023-03-14T12:42:44.035Z,36.84
2023-03-14T12:45:38.113Z,37.26
2023-03-14T12:48:34.564Z,37.23
2023-03-14T12:51:33.721Z,36.71
2023-03-14T12:54:58.238Z,37.93
2023-03-14T12:58:03.622Z,37.36
2023-03-14T13:00:55.247Z,37.61
2023-03-14T13:03:48.852Z,37.26
2023-03-14T13:06:58.090Z,37.66
2023-03-14T13:10:05.486Z,36.75
2023-03-14T13:13:08.558Z,37.73
2023-03-14T13:16:06.418Z,38.19
2023-03-14T13:19:23.252Z,38.35
2023-03-14T13:22:09.964Z,39.45
2023-03-14T13:25:22.204Z,39.37
2023-03-14T13:28:06.114Z,38.53
2023-03-14T13:31:00.102Z,40.13
2023-03-14T13:33:49.165Z,40.75
2023-03-14T13:36:34.435Z,40.81
2023-03-14T13:39:31.234Z,40.97
2023-03-14T13:42:17.672Z,41.92
2023-03-14T13:44:59.681Z,48.89
2023-03-14T13:47:51.905Z,54.51
2023-03-14T13:50:43.402Z,54.94
2023-03-14T13:53:39.708Z,55.16
2023-03-14T13:56:20.350Z,53.99
2023-03-14T13:59:10.773Z,54.43
2023-03-14T14:01:57.455Z,54.57
2023-03-14T14:04:50.320Z,53.23
2023-03-14T14:07:38.146Z,52.33
2023-03-14T14:10:32.044Z,51.44
2023-03-14T14:13:18.480Z,50.49
2023-03-14T14:16:16.617Z,49.40
2023-03-14T14:18:56.556Z,48.54
2023-03-14T14:21:43.606Z,47.49
2023-03-14T14:24:36.341Z,49.18
2023-03-14T14:27:31.635Z,47.99
2023-03-14T14:30:36.843Z,47.91
2023-03-14T14:33:27.704Z,44.51
2023-03-14T14:36:09.369Z,45.38
2023-03-14T14:39:06.230Z,46.86
2023-03-14T14:41:51.868Z,45.17
2023-03-14T14:44:48.615Z,45.21
2023-03-14T14:47:40.549Z,46.55
2023-03-14T14:50:38.801Z,46.47
2023-03-14T14:53:30.529Z,47.80
2023-03-14T14:56:27.046Z,47.09
2023-03-14T14:59:23.698Z,46.94
2023-03-14T15:02:21.665Z,46.78
2023-03-14T15:05:01.656Z,46.53
2023-03-14T15:07:39.033Z,46.03
2023-03-14T15:10:27.749Z,46.57
2023-03-14T15:13:06.240Z,46.00
2023-03-14T15:15:51.317Z,47.49
2023-03-14T15:18:39.788Z,47.49
2023-03-14T15:21:21.702Z,46.89
2023-03-14T15:24:07.130Z,46.80
2023-03-14T15:26:49.676Z,47.37
2023-03-14T15:29:40.772Z,46.90
2023-03-14T15:32:38.816Z,45.09
2023-03-14T15:35:32.158Z,45.01
2023-03-14T15:38:24.544Z,45.43
2023-03-14T15:41:19.638Z,45.16
2023-03-14T15:44:09.501Z,45.59
2023-03-14T15:46:53.522Z,46.92
2023-03-14T15:49:46.880Z,47.71
2023-03-14T15:52:32.693Z,47.17
2023-03-14T15:55:28.605Z,46.68
2023-03-14T15:58:21.890Z,46.55
2023-03-14T16:01:01.015Z,50.88
2023-03-14T16:03:56.076Z,54.91
2023-03-14T16:06:42.083Z,57.82
2023-03-14T16:09:31.044Z,61.38
2023-03-14T16:12:16.221Z,63.97
2023-03-14T16:15:16.329Z,67.20
2023-03-14T16:18:00.823Z,70.77
2023-03-14T16:20:51.609Z,71.80
2023-03-14T16:23:42.353Z,73.56
2023-03-14T16:26:37.546Z,74.63
2023-03-14T16:29:32.442Z,75.68
2023-03-14T16:32:21.153Z,76.30
2023-03-14T16:35:10.024Z,77.84
2023-03-14T16:37:53.431Z,79.07
2023-03-14T16:40:45.129Z,84.56
2023-03-14T16:43:28.364Z,88.08
2023-03-14T16:46:17.648Z,93.30
2023-03-14T16:48:53.833Z,96.48
2023-03-14T16:51:43.287Z,98.45
2023-03-14T16:54:28.031Z,100.00
2023-03-14T16:57:10.800Z,100.00
2023-03-14T16:59:59.541Z,100.00
2023-03-14T17:02:40.453Z,100.00
2023-03-14T17:05:23.742Z,100.00
2023-03-14T17:08:09.517Z,100.00
2023-03-14T17:10:53.304Z,100.00
2023-03-14T17:13:44.282Z,100.00
2023-03-14T17:16:37.275Z,100.00
2023-03-14T17:19:18.589Z,100.00
2023-03-14T17:22:21.878Z,100.00
2023-03-14T17:25:15.807Z,100.00
2023-03-14T17:27:59.065Z,100.00
2023-03-14T17:30:43.595Z,100.00
2023-03-14T17:33:41.473Z,100.00
2023-03-14T17:36:29.488Z,100.00
2023-03-14T17:39:27.555Z,100.00
2023-03-14T17:42:16.685Z,100.00
2023-03-14T17:45:02.410Z,100.00
2023-03-14T17:47:53.838Z,100.00
2023-03-14T17:50:38.133Z,100.00
2023-03-14T17:53:26.569Z,100.00
2023-03-14T17:56:13.580Z,100.00
2023-03-14T17:59:03.891Z,100.00
2023-03-14T18:01:54.152Z,100.00
2023-03-14T18:04:47.171Z,100.00
2023-03-14T18:07:33.542Z,100.00
2023-03-14T18:10:17.620Z,100.00
2023-03-14T18:13:06.817Z,100.00
2023-03-14T18:15:55.606Z,100.00
2023-03-14T18:18:42.480Z,100.00
2023-03-14T18:21:30.335Z,100.00
2023-03-14T18:24:22.202Z,100.00
2023-03-14T18:27:15.608Z,100.00
2023-03-14T18:29:55.988Z,100.00
2023-03-14T18:32:37.175Z,100.00
2023-03-14T18:35:27.626Z,100.00
2023-03-14T18:38:19.408Z,100.00
2023-03-14T18:41:16.654Z,100.00
2023-03-14T18:44:08.845Z,100.00
2023-03-14T18:46:58.675Z,100.00
2023-03-14T18:49:43.836Z,100.00
2023-03-14T18:52:23.606Z,100.00
2023-03-14T18:55:07.905Z,100.00
2023-03-14T18:57:48.943Z,100.00
2023-03-14T19:00:37.431Z,100.00
2023-03-14T19:03:36.024Z,100.00
2023-03-14T19:06:24.389Z,100.00
2023-03-14T19:09:19.134Z,100.00
2023-03-14T19:12:07.495Z,100.00
2023-03-14T19:14:48.485Z,100.00
2023-03-14T19:17:41.102Z,100.00
2023-03-14T19:20:30.026Z,100.00
2023-03-14T19:23:16.562Z,100.00
2023-03-14T19:26:03.552Z,100.00
2023-03-14T19:28:50.057Z,100.00
2023-03-14T19:31:29.435Z,100.00
2023-03-14T19:34:13.603Z,100.00
2023-03-14T19:36:55.001Z,100.00
2023-03-14T19:39:38.969Z,100.00
2023-03-14T19:42:24.972Z,100.00
2023-03-14T19:45:13.082Z,100.00
2023-03-14T19:47:53.952Z,100.00
2023-03-14T19:50:42.768Z,100.00
2023-03-14T19:53:24.637Z,100.00
2023-03-14T19:56:14.126Z,100.00
2023-03-14T19:59:08.604Z,100.00
2023-03-14T20:01:54.803Z,100.00
2023-03-14T20:04:39.612Z,100.00
2023-03-14T20:07:26.050Z,100.00
2023-03-14T20:10:28.498Z,100.00
2023-03-14T20:13:21.918Z,100.00
2023-03-14T20:16:04.202Z,100.00
2023-03-14T20:18:44.898Z,100.00
2023-03-14T20:21:30.817Z,100.00
2023-03-14T20:24:13.482Z,100.00
2023-03-14T20:27:01.537Z,100.00
2023-03-14T20:29:43.945Z,100.00
2023-03-14T20:32:32.711Z,100.00
2023-03-14T20:35:38.519Z,100.00
2023-03-14T20:38:22.490Z,100.00
2023-03-14T20:41:10.706Z,100.00
2023-03-14T20:43:54.564Z,100.00
2023-03-14T20:46:48.475Z,100.00
2023-03-14T20:49:46.644Z,100.00
2023-03-14T20:52:38.056Z,100.00
2023-03-14T20:55:22.947Z,100.00
2023-03-14T20:58:08.585Z,100.00
2023-03-14T21:00:50.879Z,100.00
2023-03-14T21:03:41.619Z,100.00
2023-03-14T21:06:33.436Z,100.00
2023-03-14T21:09:20.592Z,100.00
2023-03-14T21:12:10.740Z,100.00
2023-03-14T21:15:00.414Z,100.00
2023-03-14T21:17:49.696Z,100.00
2023-03-14T21:21:03.174Z,100.00
2023-03-14T21:23:59.691Z,100.00
2023-03-14T21:26:48.796Z,100.00
2023-03-14T21:29:32.428Z,100.00
2023-03-14T21:34:52.820Z,100.00
2023-03-14T21:37:42.607Z,100.00
2023-03-14T21:40:22.607Z,100.00
2023-03-14T21:43:17.416Z,100.00
2023-03-14T21:45:59.587Z,100.00
2023-03-14T21:48:48.633Z,100.00
2023-03-14T21:51:48.996Z,100.00
2023-03-14T21:54:50.259Z,100.00
2023-03-14T21:57:31.105Z,100.00
2023-03-14T22:00:15.618Z,100.00
2023-03-14T22:03:13.218Z,100.00
2023-03-14T22:05:55.343Z,100.00
2023-03-14T22:08:37.095Z,100.00
2023-03-14T22:11:17.595Z,100.00
2023-03-14T22:14:09.586Z,100.00
2023-03-14T22:16:59.917Z,100.00
2023-03-14T22:19:57.542Z,100.00
2023-03-14T22:22:42.314Z,100.00
2023-03-14T22:25:31.809Z,100.00
2023-03-14T22:28:27.187Z,100.00
2023-03-14T22:31:08.623Z,100.00
2023-03-14T22:33:55.113Z,100.00
2023-03-14T22:36:39.562Z,100.00
2023-03-14T22:39:34.304Z,100.00
2023-03-14T22:42:22.825Z,100.00
2023-03-14T22:45:02.663Z,100.00
2023-03-14T22:47:52.446Z,100.00
2023-03-14T22:50:48.669Z,100.00
2023-03-14T22:53:28.886Z,100.00
2023-03-14T22:56:10.514Z,100.00
2023-03-14T22:58:57.580Z,100.00
2023-03-14T23:01:37.333Z,100.00
2023-03-14T23:04:21.014Z,100.00
2023-03-14T23:07:12.879Z,100.00
2023-03-14T23:09:55.294Z,100.00
2023-03-14T23:12:37.421Z,100.00
2023-03-14T23:15:18.461Z,100.00
2023-03-14T23:18:07.204Z,100.00
2023-03-14T23:20:51.296Z,100.00
2023-03-14T23:23:35.041Z,100.00
2023-03-14T23:26:29.417Z,100.00
2023-03-14T23:29:10.219Z,100.00
2023-03-14T23:32:04.620Z,100.00
2023-03-14T23:34:50.921Z,100.00
2023-03-14T23:37:40.226Z,100.00
2023-03-14T23:40:26.370Z,100.00
2023-03-14T23:43:19.773Z,100.00
2023-03-14T23:46:10.648Z,100.00
2023-03-14T23:48:53.861Z,100.00
2023-03-14T23:51:40.062Z,100.00
2023-03-14T23:54:28.799Z,100.00
2023-03-14T23:57:22.553Z,100.00
2023-03-14T23:59:59.415Z,100.00
